createdAt,value
2023-04-29T00:01:39.076Z,2.10
2023-04-29T00:04:06.729Z,1.85
2023-04-29T00:06:34.314Z,1.83
2023-04-29T00:09:01.476Z,1.98
2023-04-29T00:11:29.090Z,1.92
2023-04-29T00:13:56.136Z,2.00
2023-04-29T00:16:23.251Z,2.20
2023-04-29T00:18:50.286Z,1.90
2023-04-29T00:21:17.332Z,2.13
2023-04-29T00:23:44.586Z,2.00
2023-04-29T00:26:11.923Z,1.80
2023-04-29T00:28:40.735Z,2.00
2023-04-29T00:31:07.833Z,1.80
2023-04-29T00:33:34.945Z,2.00
2023-04-29T00:36:02.329Z,2.10
2023-04-29T00:38:29.716Z,2.10
2023-04-29T00:40:57.461Z,2.17
2023-04-29T00:43:24.527Z,2.00
2023-04-29T00:45:51.632Z,1.92
2023-04-29T00:48:18.645Z,1.85
2023-04-29T00:50:45.826Z,2.05
2023-04-29T00:53:13.800Z,1.70
2023-04-29T00:55:42.433Z,1.60
2023-04-29T00:58:10.786Z,1.90
2023-04-29T01:00:38.172Z,1.60
2023-04-29T01:03:06.132Z,1.88
2023-04-29T01:05:33.967Z,1.85
2023-04-29T01:08:39.300Z,1.70
2023-04-29T01:11:12.084Z,1.60
2023-04-29T01:13:55.480Z,1.75
2023-04-29T01:16:29.394Z,1.70
2023-04-29T01:19:02.873Z,1.70
2023-04-29T01:21:47.521Z,1.95
2023-04-29T01:24:16.446Z,1.75
2023-04-29T01:26:56.829Z,1.98
2023-04-29T01:30:30.952Z,1.60
2023-04-29T01:33:09.736Z,1.70
2023-04-29T01:36:08.661Z,1.50
2023-04-29T01:38:47.560Z,1.58
2023-04-29T01:41:23.788Z,1.60
2023-04-29T01:43:57.126Z,1.60
2023-04-29T01:46:24.740Z,1.60
2023-04-29T01:48:56.176Z,1.65
2023-04-29T01:51:23.939Z,1.80
2023-04-29T01:53:51.724Z,1.58
2023-04-29T01:56:19.247Z,1.60
2023-04-29T01:59:18.454Z,1.60
2023-04-29T02:02:08.887Z,1.90
2023-04-29T02:04:41.075Z,1.77
2023-04-29T02:07:08.310Z,1.67
2023-04-29T02:09:35.667Z,1.80
2023-04-29T02:12:09.215Z,1.70
2023-04-29T02:14:37.766Z,1.95
2023-04-29T02:17:05.842Z,1.60
2023-04-29T02:19:33.322Z,1.90
2023-04-29T02:22:00.504Z,1.70
2023-04-29T02:24:27.782Z,2.05
2023-04-29T02:26:54.854Z,1.88
2023-04-29T02:29:21.976Z,1.80
2023-04-29T02:31:49.552Z,1.85
2023-04-29T02:34:16.899Z,1.52
2023-04-29T02:36:44.056Z,1.77
2023-04-29T02:39:11.548Z,1.50
2023-04-29T02:41:38.542Z,1.40
2023-04-29T02:44:07.550Z,1.65
2023-04-29T02:46:45.900Z,1.90
2023-04-29T02:49:14.236Z,1.70
2023-04-29T02:51:42.520Z,1.50
2023-04-29T02:54:09.837Z,1.50
2023-04-29T02:56:37.153Z,1.75
2023-04-29T02:59:04.165Z,2.40
2023-04-29T03:01:31.474Z,1.88
2023-04-29T03:03:58.756Z,2.50
2023-04-29T03:06:26.090Z,1.67
2023-04-29T03:08:53.208Z,2.10
2023-04-29T03:11:20.802Z,2.08
2023-04-29T03:13:47.866Z,3.63
2023-04-29T03:16:17.067Z,3.78
2023-04-29T03:18:45.230Z,3.10
2023-04-29T03:21:12.241Z,2.58
2023-04-29T03:23:42.392Z,2.20
2023-04-29T03:26:12.751Z,2.67
2023-04-29T03:28:39.771Z,2.10
2023-04-29T03:31:06.837Z,2.80
2023-04-29T03:33:34.058Z,2.15
2023-04-29T03:36:01.080Z,2.30
2023-04-29T03:38:38.331Z,2.08
2023-04-29T03:41:05.858Z,1.90
2023-04-29T03:43:33.393Z,1.73
2023-04-29T03:46:00.813Z,1.90
2023-04-29T03:48:28.219Z,1.55
2023-04-29T03:50:55.324Z,1.60
2023-04-29T03:53:22.607Z,1.80
2023-04-29T03:55:49.749Z,1.40
2023-04-29T03:58:17.488Z,1.48
2023-04-29T04:00:44.837Z,1.35
2023-04-29T04:03:17.649Z,1.50
2023-04-29T04:05:44.742Z,1.50
2023-04-29T04:08:14.859Z,1.83
2023-04-29T04:10:41.853Z,2.05
2023-04-29T04:13:20.526Z,2.38
2023-04-29T04:15:51.834Z,2.50
2023-04-29T04:18:18.937Z,1.85
2023-04-29T04:20:46.072Z,1.85
2023-04-29T04:23:13.677Z,2.00
2023-04-29T04:25:48.089Z,1.83
2023-04-29T04:28:38.469Z,1.90
2023-04-29T04:31:09.924Z,1.70
2023-04-29T04:33:37.042Z,1.50
2023-04-29T04:36:04.242Z,1.58
2023-04-29T04:38:33.061Z,1.83
2023-04-29T04:41:01.417Z,2.40
2023-04-29T04:43:35.180Z,3.55
2023-04-29T04:46:14.420Z,2.90
2023-04-29T04:48:51.823Z,3.10
2023-04-29T04:51:21.375Z,2.83
2023-04-29T04:53:49.564Z,2.50
2023-04-29T04:56:22.182Z,2.90
2023-04-29T04:58:49.806Z,2.55
2023-04-29T05:01:16.931Z,3.05
2023-04-29T05:03:44.261Z,3.25
2023-04-29T05:06:11.875Z,2.42
2023-04-29T05:08:41.308Z,2.80
2023-04-29T05:11:20.531Z,2.50
2023-04-29T05:14:01.560Z,2.65
2023-04-29T05:16:28.796Z,2.38
2023-04-29T05:18:56.079Z,2.67
2023-04-29T05:21:26.938Z,2.90
2023-04-29T05:23:53.942Z,2.17
2023-04-29T05:26:22.132Z,2.45
2023-04-29T05:28:50.923Z,2.55
2023-04-29T05:31:20.964Z,2.60
2023-04-29T05:33:48.087Z,2.35
2023-04-29T05:36:15.138Z,2.80
2023-04-29T05:38:42.781Z,2.60
2023-04-29T05:41:09.905Z,2.50
2023-04-29T05:44:02.152Z,2.47
2023-04-29T05:46:32.196Z,2.30
2023-04-29T05:48:59.383Z,2.33
2023-04-29T05:51:28.429Z,2.40
2023-04-29T05:53:55.852Z,2.80
2023-04-29T05:56:23.582Z,3.35
2023-04-29T05:58:50.717Z,3.47
2023-04-29T06:01:18.412Z,2.80
2023-04-29T06:03:46.492Z,2.42
2023-04-29T06:06:39.233Z,2.80
2023-04-29T06:09:23.829Z,2.92
2023-04-29T06:11:56.330Z,2.97
2023-04-29T06:14:23.905Z,2.75
2023-04-29T06:16:51.180Z,2.83
2023-04-29T06:19:18.253Z,3.03
2023-04-29T06:21:45.352Z,3.00
2023-04-29T06:24:12.439Z,2.75
2023-04-29T06:26:39.485Z,2.63
2023-04-29T06:29:06.707Z,2.30
2023-04-29T06:31:35.582Z,2.67
2023-04-29T06:34:04.353Z,2.63
2023-04-29T06:36:33.210Z,2.70
2023-04-29T06:39:18.672Z,4.60
2023-04-29T06:42:14.607Z,4.38
2023-04-29T06:45:00.754Z,5.25
2023-04-29T06:47:48.015Z,3.80
2023-04-29T06:50:24.814Z,3.95
2023-04-29T06:52:51.963Z,3.75
2023-04-29T06:55:19.287Z,3.95
2023-04-29T06:57:46.488Z,3.50
2023-04-29T07:00:16.101Z,3.65
2023-04-29T07:02:43.378Z,3.40
2023-04-29T07:05:10.738Z,3.45
2023-04-29T07:07:37.799Z,2.83
2023-04-29T07:10:05.260Z,3.38
2023-04-29T07:12:32.411Z,3.38
2023-04-29T07:14:59.999Z,3.03
2023-04-29T07:17:30.319Z,2.60
2023-04-29T07:19:57.715Z,3.00
2023-04-29T07:22:24.867Z,2.75
2023-04-29T07:24:55.663Z,3.13
2023-04-29T07:27:23.944Z,3.58
2023-04-29T07:29:52.573Z,3.53
2023-04-29T07:32:19.722Z,4.00
2023-04-29T07:34:48.880Z,3.78
2023-04-29T07:37:15.864Z,3.33
2023-04-29T07:39:42.886Z,2.80
2023-04-29T07:42:10.917Z,3.47
2023-04-29T07:44:38.689Z,3.33
2023-04-29T07:47:06.304Z,2.70
2023-04-29T07:49:33.472Z,2.72
2023-04-29T07:52:00.659Z,3.00
2023-04-29T07:54:27.931Z,2.90
2023-04-29T07:56:55.362Z,3.22
2023-04-29T07:59:22.703Z,3.60
2023-04-29T08:01:49.830Z,3.10
2023-04-29T08:04:17.023Z,2.85
2023-04-29T08:06:50.962Z,2.90
2023-04-29T08:09:18.229Z,3.30
2023-04-29T08:11:45.963Z,3.00
2023-04-29T08:14:13.734Z,3.28
2023-04-29T08:16:40.980Z,3.28
2023-04-29T08:19:08.137Z,3.40
2023-04-29T08:21:35.385Z,3.42
2023-04-29T08:24:02.814Z,3.45
2023-04-29T08:26:30.589Z,3.00
2023-04-29T08:28:57.583Z,2.83
2023-04-29T08:31:24.714Z,3.08
2023-04-29T08:33:52.331Z,2.90
2023-04-29T08:36:19.386Z,2.72
2023-04-29T08:38:47.146Z,2.90
2023-04-29T08:41:16.269Z,2.85
2023-04-29T08:43:44.637Z,3.10
2023-04-29T08:46:12.248Z,3.25
2023-04-29T08:48:43.459Z,3.08
2023-04-29T08:51:13.664Z,3.25
2023-04-29T08:53:40.782Z,3.20
2023-04-29T08:56:22.217Z,3.10
2023-04-29T08:58:54.716Z,2.78
2023-04-29T09:01:23.328Z,3.28
2023-04-29T09:04:12.588Z,2.63
2023-04-29T09:06:39.642Z,2.63
2023-04-29T09:09:07.126Z,2.58
2023-04-29T09:11:35.857Z,2.50
2023-04-29T09:14:04.430Z,3.00
2023-04-29T09:16:31.662Z,4.30
2023-04-29T09:18:58.709Z,4.40
2023-04-29T09:21:27.773Z,3.75
2023-04-29T09:23:57.136Z,3.15
2023-04-29T09:26:25.172Z,4.43
2023-04-29T09:29:14.201Z,4.20
2023-04-29T09:31:42.371Z,3.10
2023-04-29T09:34:12.024Z,2.40
2023-04-29T09:36:51.088Z,4.07
2023-04-29T09:39:22.638Z,3.65
2023-04-29T09:41:52.480Z,2.92
2023-04-29T09:44:25.069Z,3.10
2023-04-29T09:47:03.193Z,2.70
2023-04-29T09:49:32.912Z,3.47
2023-04-29T09:52:01.289Z,3.08
2023-04-29T09:54:32.714Z,3.22
2023-04-29T09:57:02.433Z,2.88
2023-04-29T09:59:30.016Z,3.28
2023-04-29T10:01:58.660Z,2.60
2023-04-29T10:04:28.154Z,2.42
2023-04-29T10:06:56.575Z,2.22
2023-04-29T10:09:24.346Z,2.47
2023-04-29T10:11:52.813Z,2.10
2023-04-29T10:14:22.539Z,2.05
2023-04-29T10:17:25.227Z,2.38
2023-04-29T10:20:05.953Z,2.20
2023-04-29T10:22:45.614Z,2.95
2023-04-29T10:25:14.801Z,2.85
2023-04-29T10:27:46.000Z,4.45
2023-04-29T10:30:14.791Z,3.20
2023-04-29T10:32:50.653Z,3.13
2023-04-29T10:35:20.398Z,2.58
2023-04-29T10:37:49.064Z,2.47
2023-04-29T10:40:24.976Z,2.20
2023-04-29T10:42:53.546Z,2.58
2023-04-29T10:45:28.808Z,2.13
2023-04-29T10:48:02.926Z,2.25
2023-04-29T10:50:31.603Z,2.53
2023-04-29T10:53:01.784Z,2.42
2023-04-29T10:55:29.472Z,2.08
2023-04-29T10:57:57.380Z,2.13
2023-04-29T11:00:28.715Z,2.28
2023-04-29T11:02:57.191Z,2.65
2023-04-29T11:05:35.242Z,3.25
2023-04-29T11:08:16.490Z,4.90
2023-04-29T11:10:44.274Z,5.82
2023-04-29T11:13:29.823Z,3.40
2023-04-29T11:16:07.048Z,3.22
2023-04-29T11:18:35.592Z,2.85
2023-04-29T11:21:08.836Z,3.17
2023-04-29T11:23:42.362Z,3.88
2023-04-29T11:26:09.813Z,3.60
2023-04-29T11:28:37.128Z,3.50
2023-04-29T11:31:04.426Z,3.17
2023-04-29T11:33:34.192Z,3.28
2023-04-29T11:36:01.311Z,2.60
2023-04-29T11:38:30.395Z,4.65
2023-04-29T11:41:00.144Z,5.22
2023-04-29T11:43:27.128Z,3.45
2023-04-29T11:45:54.340Z,3.33
2023-04-29T11:48:23.129Z,2.53
2023-04-29T11:50:52.388Z,3.30
2023-04-29T11:53:25.355Z,3.33
2023-04-29T11:55:56.114Z,2.63
2023-04-29T11:58:24.157Z,2.97
2023-04-29T12:00:54.370Z,3.47
2023-04-29T12:03:22.103Z,4.22
2023-04-29T12:05:52.932Z,2.88
2023-04-29T12:08:21.355Z,3.35
2023-04-29T12:10:49.095Z,3.13
2023-04-29T12:13:18.452Z,3.45
2023-04-29T12:15:47.985Z,3.20
2023-04-29T12:18:15.488Z,3.03
2023-04-29T12:20:42.744Z,2.45
2023-04-29T12:23:12.857Z,2.30
2023-04-29T12:25:43.798Z,2.40
2023-04-29T12:28:14.175Z,2.25
2023-04-29T12:30:41.762Z,2.30
2023-04-29T12:33:09.937Z,1.90
2023-04-29T12:35:40.192Z,2.00
2023-04-29T12:38:08.794Z,2.53
2023-04-29T12:40:35.896Z,3.58
2023-04-29T12:43:11.087Z,2.40
2023-04-29T12:45:39.282Z,2.20
2023-04-29T12:48:10.057Z,2.50
2023-04-29T12:50:50.155Z,2.47
2023-04-29T12:53:17.258Z,2.10
2023-04-29T12:55:44.329Z,2.05
2023-04-29T12:58:11.572Z,1.83
2023-04-29T13:00:38.848Z,2.00
2023-04-29T13:03:06.522Z,2.58
2023-04-29T13:05:34.025Z,2.10
2023-04-29T13:08:01.633Z,2.38
2023-04-29T13:10:28.806Z,2.28
2023-04-29T13:12:56.085Z,2.35
2023-04-29T13:15:23.277Z,2.60
2023-04-29T13:17:50.312Z,2.60
2023-04-29T13:20:17.599Z,2.58
2023-04-29T13:22:45.459Z,2.33
2023-04-29T13:25:12.709Z,1.98
2023-04-29T13:27:39.888Z,2.13
2023-04-29T13:30:07.707Z,2.40
2023-04-29T13:32:43.887Z,2.28
2023-04-29T13:35:12.335Z,2.53
2023-04-29T13:37:39.424Z,2.60
2023-04-29T13:40:08.100Z,2.40
2023-04-29T13:42:44.075Z,2.95
2023-04-29T13:45:16.875Z,2.92
2023-04-29T13:48:03.092Z,2.60
2023-04-29T13:53:35.866Z,2.45
2023-04-29T13:56:41.172Z,2.67
2023-04-29T14:01:37.734Z,2.58
2023-04-29T14:03:53.490Z,2.40
2023-04-29T14:06:20.679Z,2.65
2023-04-29T14:08:47.693Z,2.53
2023-04-29T14:11:14.860Z,2.50
2023-04-29T14:13:42.084Z,2.70
2023-04-29T14:16:09.617Z,2.47
2023-04-29T14:18:36.779Z,3.15
2023-04-29T14:21:03.963Z,2.33
2023-04-29T14:23:31.060Z,2.78
2023-04-29T14:26:16.559Z,3.30
2023-04-29T14:28:45.125Z,4.93
2023-04-29T14:31:13.927Z,3.30
2023-04-29T14:33:41.179Z,2.90
2023-04-29T14:36:09.368Z,2.30
2023-04-29T14:38:36.479Z,3.10
2023-04-29T14:41:03.702Z,3.53
2023-04-29T14:43:30.818Z,3.08
2023-04-29T14:45:57.947Z,2.35
2023-04-29T14:48:25.256Z,2.50
2023-04-29T14:50:52.330Z,1.80
2023-04-29T14:53:19.462Z,2.25
2023-04-29T14:55:46.699Z,2.30
2023-04-29T14:58:13.718Z,2.00
2023-04-29T15:00:40.841Z,2.08
2023-04-29T15:03:10.287Z,2.00
2023-04-29T15:05:37.809Z,1.90
2023-04-29T15:08:05.120Z,1.75
2023-04-29T15:10:32.683Z,2.00
2023-04-29T15:12:59.737Z,1.67
2023-04-29T15:15:26.852Z,1.88
2023-04-29T15:17:53.913Z,1.60
2023-04-29T15:20:21.095Z,1.83
2023-04-29T15:22:48.185Z,2.30
2023-04-29T15:25:15.786Z,4.75
2023-04-29T15:27:43.007Z,3.83
2023-04-29T15:30:10.606Z,3.67
2023-04-29T15:32:37.684Z,3.42
2023-04-29T15:35:06.751Z,3.28
2023-04-29T15:37:34.642Z,3.13
2023-04-29T15:40:02.232Z,2.80
2023-04-29T15:42:30.784Z,2.78
2023-04-29T15:44:57.847Z,3.28
2023-04-29T15:47:24.922Z,3.72
2023-04-29T15:49:52.525Z,3.03
2023-04-29T15:52:19.898Z,3.10
2023-04-29T15:54:47.027Z,3.17
2023-04-29T15:57:14.405Z,2.72
2023-04-29T15:59:41.455Z,3.00
2023-04-29T16:02:11.068Z,2.85
2023-04-29T16:04:38.671Z,3.13
2023-04-29T16:07:05.856Z,3.00
2023-04-29T16:09:34.048Z,3.35
2023-04-29T16:12:02.219Z,3.33
2023-04-29T16:14:30.177Z,3.38
2023-04-29T16:16:57.364Z,2.97
2023-04-29T16:19:24.506Z,3.10
2023-04-29T16:21:51.617Z,3.20
2023-04-29T16:24:18.693Z,2.92
2023-04-29T16:26:45.821Z,2.83
2023-04-29T16:29:13.519Z,3.10
2023-04-29T16:31:40.669Z,3.13
2023-04-29T16:34:07.805Z,2.75
2023-04-29T16:36:34.837Z,2.80
2023-04-29T16:39:04.230Z,2.30
2023-04-29T16:41:32.472Z,2.60
2023-04-29T16:43:59.507Z,2.63
2023-04-29T16:46:26.725Z,3.20
2023-04-29T16:48:56.884Z,2.95
2023-04-29T16:51:29.278Z,2.83
2023-04-29T16:53:56.833Z,3.10
2023-04-29T16:56:23.924Z,3.15
2023-04-29T16:58:51.264Z,3.60
2023-04-29T17:01:21.419Z,3.17
2023-04-29T17:03:49.653Z,3.80
2023-04-29T17:06:16.881Z,4.22
2023-04-29T17:08:44.722Z,5.18
2023-04-29T17:11:12.059Z,4.82
2023-04-29T17:13:39.109Z,4.90
2023-04-29T17:16:07.220Z,4.88
2023-04-29T17:18:34.441Z,5.25
2023-04-29T17:21:02.871Z,5.32
2023-04-29T17:23:30.877Z,5.43
2023-04-29T17:26:04.887Z,6.38
2023-04-29T17:28:36.455Z,5.85
2023-04-29T17:31:03.792Z,6.47
2023-04-29T17:33:39.656Z,6.15
2023-04-29T17:36:06.806Z,7.30
2023-04-29T17:38:33.829Z,6.80
2023-04-29T17:41:02.161Z,7.65
2023-04-29T17:43:32.519Z,7.25
2023-04-29T17:45:59.823Z,6.88
2023-04-29T17:48:27.578Z,7.78
2023-04-29T17:50:54.782Z,7.68
2023-04-29T17:53:21.855Z,7.82
2023-04-29T17:55:48.905Z,8.48
2023-04-29T17:58:15.905Z,11.52
2023-04-29T18:00:43.057Z,15.75
2023-04-29T18:03:10.167Z,15.88
2023-04-29T18:05:37.174Z,17.30
2023-04-29T18:08:04.426Z,18.08
2023-04-29T18:10:31.541Z,16.17
2023-04-29T18:12:58.602Z,15.88
2023-04-29T18:15:25.665Z,16.92
2023-04-29T18:17:54.579Z,15.60
2023-04-29T18:20:22.602Z,15.60
2023-04-29T18:22:50.732Z,15.90
2023-04-29T18:25:18.029Z,16.17
2023-04-29T18:27:45.058Z,16.33
2023-04-29T18:30:12.441Z,17.95
2023-04-29T18:32:39.705Z,17.13
2023-04-29T18:35:07.227Z,16.95
2023-04-29T18:37:34.731Z,17.40
2023-04-29T18:40:01.888Z,18.55
2023-04-29T18:42:30.850Z,21.30
2023-04-29T18:44:57.899Z,22.92
2023-04-29T18:47:24.950Z,26.52
2023-04-29T18:49:52.035Z,26.10
2023-04-29T18:52:19.182Z,26.67
2023-04-29T18:54:46.343Z,23.73
2023-04-29T18:57:13.362Z,25.73
2023-04-29T18:59:41.568Z,21.45
2023-04-29T19:02:08.962Z,22.15
2023-04-29T19:04:36.179Z,23.70
2023-04-29T19:07:06.186Z,21.00
2023-04-29T19:09:33.597Z,18.60
2023-04-29T19:12:03.637Z,17.83
2023-04-29T19:14:34.255Z,15.10
2023-04-29T19:17:01.821Z,14.82
2023-04-29T19:19:30.281Z,14.57
2023-04-29T19:21:57.749Z,14.48
2023-04-29T19:24:24.841Z,11.68
2023-04-29T19:26:51.933Z,10.95
2023-04-29T19:29:19.025Z,10.45
2023-04-29T19:31:46.244Z,11.40
2023-04-29T19:34:13.341Z,10.80
2023-04-29T19:36:40.374Z,10.70
2023-04-29T19:39:10.819Z,11.05
2023-04-29T19:41:38.056Z,10.68
2023-04-29T19:44:05.236Z,12.80
2023-04-29T19:46:32.586Z,11.13
2023-04-29T19:48:59.769Z,11.80
2023-04-29T19:51:26.946Z,14.02
2023-04-29T19:53:56.756Z,12.52
2023-04-29T19:56:23.991Z,13.32
2023-04-29T19:58:51.187Z,12.95
2023-04-29T20:01:23.905Z,13.60
2023-04-29T20:03:51.026Z,13.35
2023-04-29T20:06:18.376Z,13.65
2023-04-29T20:08:45.701Z,13.65
2023-04-29T20:11:13.474Z,12.57
2023-04-29T20:13:40.822Z,13.32
2023-04-29T20:16:08.075Z,11.57
2023-04-29T20:18:36.399Z,12.00
2023-04-29T20:21:03.578Z,12.90
2023-04-29T20:23:30.789Z,12.88
2023-04-29T20:25:58.493Z,12.70
2023-04-29T20:28:25.629Z,12.38
2023-04-29T20:30:52.681Z,12.25
2023-04-29T20:33:21.118Z,10.63
2023-04-29T20:35:48.212Z,12.95
2023-04-29T20:38:15.233Z,11.88
2023-04-29T20:40:42.322Z,11.40
2023-04-29T20:43:09.988Z,12.00
2023-04-29T20:45:37.937Z,11.82
2023-04-29T20:48:05.726Z,11.35
2023-04-29T20:50:32.795Z,11.27
2023-04-29T20:52:59.916Z,10.48
2023-04-29T20:55:27.082Z,10.90
2023-04-29T20:57:54.116Z,10.07
2023-04-29T21:00:21.261Z,10.80
2023-04-29T21:02:48.693Z,10.52
2023-04-29T21:05:15.981Z,11.20
2023-04-29T21:07:43.022Z,11.43
2023-04-29T21:10:10.219Z,10.85
2023-04-29T21:12:37.296Z,10.02
2023-04-29T21:15:06.120Z,11.05
2023-04-29T21:17:33.327Z,9.90
2023-04-29T21:20:01.005Z,9.82
2023-04-29T21:22:28.138Z,10.32
2023-04-29T21:24:55.133Z,10.07
2023-04-29T21:27:22.248Z,10.50
2023-04-29T21:29:49.214Z,11.25
2023-04-29T21:32:21.598Z,11.70
2023-04-29T21:34:49.174Z,11.85
2023-04-29T21:37:16.648Z,11.23
2023-04-29T21:39:43.649Z,10.90
2023-04-29T21:42:11.272Z,10.80
2023-04-29T21:44:38.796Z,11.18
2023-04-29T21:47:06.957Z,10.88
2023-04-29T21:49:34.404Z,9.75
2023-04-29T21:52:01.857Z,10.77
2023-04-29T21:54:28.891Z,10.93
2023-04-29T21:56:56.265Z,10.57
2023-04-29T21:59:23.271Z,10.77
2023-04-29T22:01:59.878Z,9.57
2023-04-29T22:04:28.414Z,9.90
2023-04-29T22:06:59.191Z,10.48
2023-04-29T22:09:26.287Z,9.60
2023-04-29T22:11:53.295Z,10.57
2023-04-29T22:14:20.462Z,9.55
2023-04-29T22:16:47.590Z,11.35
2023-04-29T22:19:14.608Z,9.52
2023-04-29T22:21:43.147Z,9.82
2023-04-29T22:24:10.375Z,9.85
2023-04-29T22:26:37.415Z,9.90
2023-04-29T22:29:04.695Z,9.43
2023-04-29T22:31:31.784Z,10.85
2023-04-29T22:33:58.813Z,10.43
2023-04-29T22:36:26.322Z,9.38
2023-04-29T22:38:53.403Z,9.90
2023-04-29T22:41:20.460Z,10.07
2023-04-29T22:43:47.554Z,10.90
2023-04-29T22:46:14.691Z,10.73
2023-04-29T22:48:41.671Z,9.90
2023-04-29T22:51:08.813Z,9.80
2023-04-29T22:53:35.790Z,9.25
2023-04-29T22:56:03.298Z,9.57
2023-04-29T22:58:30.646Z,10.48
2023-04-29T23:00:58.089Z,9.98
2023-04-29T23:03:26.054Z,10.02
2023-04-29T23:06:02.694Z,10.85
2023-04-29T23:08:29.876Z,9.27
2023-04-29T23:10:56.860Z,9.93
2023-04-29T23:13:23.951Z,11.00
2023-04-29T23:15:51.055Z,9.85
2023-04-29T23:18:18.091Z,10.43
2023-04-29T23:20:48.248Z,9.32
2023-04-29T23:23:15.339Z,10.52
2023-04-29T23:25:42.830Z,10.25
2023-04-29T23:28:09.865Z,10.85
2023-04-29T23:30:36.865Z,11.13
2023-04-29T23:33:04.079Z,10.13
2023-04-29T23:35:31.824Z,10.48
2023-04-29T23:37:58.834Z,11.73
2023-04-29T23:40:26.150Z,11.60
2023-04-29T23:42:53.187Z,11.70
2023-04-29T23:45:20.499Z,11.23
2023-04-29T23:47:47.499Z,11.70
2023-04-29T23:50:14.736Z,13.35
2023-04-29T23:52:41.836Z,11.02
2023-04-29T23:55:09.616Z,11.98
2023-04-29T23:57:36.670Z,12.52
